Time;durP1;ratioP1;P1;durP2;ratioP2;P2;SDS_P1;SDS_P2;PMS_P1;PMS_P2;Temp;Humidity;BMP_temperature;BMP_pressure;BME280_temperature;BME280_humidity;BME280_pressure;Samples;Min_cycle;Max_cycle;Signal;HPM_P1;HPM_P2
2022/03/28 00:01:38;;;;;;;5.50;1.45;;;23.60;99.90;;;;;;5056135;28;20405;-75
2022/03/28 00:04:05;;;;;;;3.53;1.38;;;23.70;99.90;;;;;;5073921;28;20078;-76
2022/03/28 00:06:33;;;;;;;2.35;1.20;;;23.80;99.90;;;;;;5073998;28;20028;-77
2022/03/28 00:09:00;;;;;;;3.35;1.63;;;23.90;99.90;;;;;;5055802;28;20062;-76
2022/03/28 00:11:27;;;;;;;2.60;1.00;;;23.90;99.90;;;;;;5055839;28;20078;-77
2022/03/28 00:13:56;;;;;;;2.53;1.20;;;23.70;99.90;;;;;;5055749;28;20139;-76
2022/03/28 00:16:23;;;;;;;2.92;1.65;;;23.80;99.90;;;;;;5073778;28;20052;-75
2022/03/28 00:18:50;;;;;;;2.70;1.25;;;23.90;99.90;;;;;;5074013;28;20028;-75
2022/03/28 00:21:19;;;;;;;1.23;0.95;;;24.20;99.90;;;;;;5073809;28;20379;-76
2022/03/28 00:23:47;;;;;;;2.13;1.25;;;24.10;99.90;;;;;;5039220;28;20051;-76
2022/03/28 00:26:15;;;;;;;3.17;1.55;;;24.30;99.90;;;;;;5073931;28;20343;-76
2022/03/28 00:28:42;;;;;;;3.35;1.52;;;24.70;99.90;;;;;;5073387;28;20024;-76
2022/03/28 00:31:09;;;;;;;4.30;1.60;;;24.70;99.90;;;;;;5073478;28;20017;-75
2022/03/28 00:33:37;;;;;;;4.65;2.10;;;24.50;99.90;;;;;;5073293;28;20089;-76
2022/03/28 00:36:05;;;;;;;4.28;1.85;;;24.60;99.90;;;;;;5073246;28;20388;-76
2022/03/28 00:38:33;;;;;;;2.90;1.40;;;24.50;99.90;;;;;;5055391;28;20170;-73
2022/03/28 00:41:01;;;;;;;4.03;1.90;;;24.40;99.90;;;;;;5038655;28;20029;-77
2022/03/28 00:43:28;;;;;;;5.10;1.85;;;24.40;99.90;;;;;;5038972;28;20114;-77
2022/03/28 00:45:57;;;;;;;4.80;2.28;;;24.60;99.90;;;;;;5055029;28;20166;-77
2022/03/28 00:48:26;;;;;;;3.80;2.63;;;24.60;99.90;;;;;;5022488;28;20024;-77
2022/03/28 00:50:57;;;;;;;4.75;2.50;;;24.40;99.90;;;;;;5073069;28;20473;-78
2022/03/28 00:53:26;;;;;;;4.18;2.28;;;24.60;99.90;;;;;;5073134;28;20017;-77
2022/03/28 00:55:53;;;;;;;4.60;3.03;;;24.90;99.90;;;;;;5055052;28;20024;-77
2022/03/28 00:58:22;;;;;;;6.05;3.67;;;24.80;99.90;;;;;;5073004;28;20032;-77
2022/03/28 01:00:49;;;;;;;4.68;3.40;;;25.00;99.90;;;;;;5072937;28;20032;-77
2022/03/28 01:03:16;;;;;;;4.68;2.92;;;25.20;99.90;;;;;;5072789;28;20040;-77
2022/03/28 01:05:44;;;;;;;6.60;3.20;;;25.50;99.90;;;;;;5072730;28;20515;-78
2022/03/28 01:08:14;;;;;;;4.50;3.28;;;25.90;99.90;;;;;;5054620;28;20028;-78
2022/03/28 01:10:45;;;;;;;5.85;3.78;;;26.00;99.90;;;;;;5072741;28;20028;-77
2022/03/28 01:13:13;;;;;;;4.18;3.28;;;26.00;99.90;;;;;;5054747;28;20032;-77
2022/03/28 01:15:41;;;;;;;5.40;3.50;;;25.60;99.90;;;;;;5054584;28;20515;-77
2022/03/28 01:18:11;;;;;;;5.80;3.15;;;25.40;99.90;;;;;;5072620;28;20051;-77
2022/03/28 01:20:40;;;;;;;4.90;3.40;;;25.30;99.90;;;;;;5054670;28;20028;-78
2022/03/28 01:23:09;;;;;;;5.07;3.13;;;25.30;99.90;;;;;;5054645;28;20035;-77
2022/03/28 01:25:37;;;;;;;5.90;3.50;;;25.40;99.90;;;;;;5054450;28;20055;-77
2022/03/28 01:28:05;;;;;;;5.65;3.78;;;25.40;99.90;;;;;;5072622;28;20024;-78
2022/03/28 01:30:33;;;;;;;4.93;3.58;;;25.50;99.90;;;;;;5054457;28;20079;-77
2022/03/28 01:33:01;;;;;;;4.75;3.80;;;25.50;99.90;;;;;;5054502;28;20107;-77
2022/03/28 01:35:31;;;;;;;5.70;3.80;;;25.60;99.90;;;;;;5054418;28;20128;-76
2022/03/28 01:38:00;;;;;;;4.38;3.28;;;25.70;99.90;;;;;;5054497;28;20649;-76
2022/03/28 01:40:28;;;;;;;6.50;3.72;;;25.60;99.90;;;;;;5072405;28;20028;-76
2022/03/28 01:42:56;;;;;;;5.40;3.50;;;25.40;99.90;;;;;;5072430;28;20097;-76
2022/03/28 01:45:24;;;;;;;4.72;3.55;;;25.10;99.90;;;;;;5071821;28;20385;-77
2022/03/28 01:47:52;;;;;;;6.63;3.60;;;25.20;99.90;;;;;;5054441;28;20385;-77
2022/03/28 01:50:19;;;;;;;5.78;3.20;;;25.20;99.90;;;;;;5054296;28;20074;-77
2022/03/28 01:52:47;;;;;;;5.75;3.45;;;25.20;99.90;;;;;;5054354;28;20150;-78
2022/03/28 01:55:15;;;;;;;9.27;3.70;;;25.10;99.90;;;;;;5054243;28;20024;-78
2022/03/28 01:57:44;;;;;;;7.97;3.65;;;25.00;99.90;;;;;;5072241;28;20027;-78
2022/03/28 02:00:15;;;;;;;7.40;3.38;;;24.90;99.90;;;;;;5054403;28;20118;-78
2022/03/28 02:02:45;;;;;;;8.52;3.25;;;25.00;99.90;;;;;;5072347;28;20028;-78
2022/03/28 02:05:13;;;;;;;7.18;2.97;;;24.90;99.90;;;;;;5072146;28;20024;-78
2022/03/28 02:07:42;;;;;;;6.18;3.80;;;24.70;99.90;;;;;;5054058;28;20056;-78
2022/03/28 02:10:11;;;;;;;7.78;3.30;;;24.70;99.90;;;;;;5053981;28;20040;-78
2022/03/28 02:12:39;;;;;;;9.18;4.18;;;24.90;99.90;;;;;;5072164;28;20082;-78
2022/03/28 02:15:07;;;;;;;6.18;3.00;;;24.90;99.90;;;;;;5054160;28;20017;-78
2022/03/28 02:17:35;;;;;;;7.07;2.65;;;24.90;99.90;;;;;;5053915;28;20482;-78
2022/03/28 02:20:05;;;;;;;7.32;2.90;;;25.00;99.90;;;;;;5072130;28;20028;-78
2022/03/28 02:22:37;;;;;;;7.22;3.40;;;25.10;99.90;;;;;;5053901;28;20020;-79
2022/03/28 02:25:06;;;;;;;5.55;2.88;;;25.30;99.90;;;;;;5071976;28;20539;-78
2022/03/28 02:27:34;;;;;;;9.45;2.92;;;25.40;99.90;;;;;;5053964;28;20020;-78
2022/03/28 02:30:01;;;;;;;5.60;2.63;;;25.50;99.90;;;;;;5054008;28;20056;-79
2022/03/28 02:32:29;;;;;;;10.63;2.97;;;25.70;99.90;;;;;;5071886;28;20385;-79
2022/03/28 02:34:56;;;;;;;9.05;3.08;;;25.80;99.90;;;;;;5071922;28;20025;-78
2022/03/28 02:37:23;;;;;;;10.13;3.03;;;25.90;99.90;;;;;;5053853;28;20552;-76
2022/03/28 02:39:51;;;;;;;8.52;2.67;;;25.90;99.90;;;;;;5054092;28;20048;-77
2022/03/28 02:42:22;;;;;;;8.60;2.70;;;25.80;99.90;;;;;;5053809;28;20431;-78
2022/03/28 02:44:52;;;;;;;8.10;3.05;;;25.80;99.90;;;;;;5071860;28;20392;-78
2022/03/28 02:47:21;;;;;;;7.82;3.05;;;25.80;99.90;;;;;;5053666;28;20031;-78
2022/03/28 02:49:50;;;;;;;8.70;3.60;;;25.90;99.90;;;;;;5053664;28;20028;-78
2022/03/28 02:52:17;;;;;;;8.10;2.72;;;26.10;99.90;;;;;;5071800;28;20500;-78
2022/03/28 02:54:45;;;;;;;10.55;3.17;;;26.00;99.90;;;;;;5053792;28;20016;-78
2022/03/28 02:57:12;;;;;;;6.35;2.40;;;26.10;99.90;;;;;;5072090;28;20338;-77
2022/03/28 02:59:40;;;;;;;8.00;2.60;;;26.30;99.90;;;;;;5075285;28;20111;-77
2022/03/28 03:02:07;;;;;;;7.82;3.08;;;26.30;99.90;;;;;;5075305;28;20063;-78
2022/03/28 03:04:35;;;;;;;5.97;2.30;;;26.10;99.90;;;;;;5075256;28;20048;-77
2022/03/28 03:07:03;;;;;;;6.20;2.85;;;26.00;99.90;;;;;;5075121;28;20111;-78
2022/03/28 03:09:31;;;;;;;6.35;2.50;;;26.10;99.90;;;;;;5056836;28;20500;-78
2022/03/28 03:11:58;;;;;;;6.97;2.40;;;26.00;99.90;;;;;;5075014;28;20012;-77
2022/03/28 03:14:25;;;;;;;5.35;2.40;;;25.90;99.90;;;;;;5075148;28;20017;-78
2022/03/28 03:16:53;;;;;;;6.63;2.22;;;25.80;99.90;;;;;;5074937;28;20024;-76
2022/03/28 03:19:21;;;;;;;9.07;2.85;;;25.60;99.90;;;;;;5056814;28;20035;-77
2022/03/28 03:21:48;;;;;;;4.80;2.20;;;25.60;99.90;;;;;;5074922;28;20028;-77
2022/03/28 03:24:16;;;;;;;7.00;2.33;;;25.40;99.90;;;;;;5074749;28;20389;-77
2022/03/28 03:26:43;;;;;;;6.18;2.38;;;25.50;99.90;;;;;;5074744;28;20043;-77
2022/03/28 03:29:11;;;;;;;6.13;2.40;;;25.30;99.90;;;;;;5056643;28;20025;-77
2022/03/28 03:31:39;;;;;;;6.10;2.42;;;25.20;99.90;;;;;;5074610;28;20518;-77
2022/03/28 03:34:07;;;;;;;5.53;2.28;;;25.20;99.90;;;;;;5074614;28;20385;-78
2022/03/28 03:36:35;;;;;;;8.43;2.85;;;25.30;99.90;;;;;;5074670;28;20021;-77
2022/03/28 03:39:03;;;;;;;6.13;2.13;;;25.20;99.90;;;;;;5074643;28;20031;-77
2022/03/28 03:41:31;;;;;;;4.65;2.40;;;25.60;99.90;;;;;;5056407;28;20082;-77
2022/03/28 03:43:58;;;;;;;9.57;2.60;;;25.90;99.90;;;;;;5056332;28;20051;-77
2022/03/28 03:46:26;;;;;;;5.32;2.40;;;25.70;99.90;;;;;;5056321;28;20115;-78
2022/03/28 03:48:53;;;;;;;3.60;1.88;;;25.80;99.90;;;;;;5074323;28;20024;-77
2022/03/28 03:51:21;;;;;;;3.72;1.70;;;25.70;99.90;;;;;;5056276;28;20056;-78
2022/03/28 03:53:48;;;;;;;4.68;1.90;;;25.60;99.90;;;;;;5055892;28;20028;-78
2022/03/28 03:56:16;;;;;;;4.07;2.25;;;25.80;99.90;;;;;;5056296;28;20028;-78
2022/03/28 03:58:44;;;;;;;3.53;1.70;;;25.60;99.90;;;;;;5056377;28;20033;-78
2022/03/28 04:01:11;;;;;;;3.30;1.58;;;25.60;99.90;;;;;;5074139;28;20024;-78
2022/03/28 04:03:39;;;;;;;7.63;1.70;;;25.40;99.90;;;;;;5056077;28;20028;-78
2022/03/28 04:06:10;;;;;;;5.93;2.13;;;25.40;99.90;;;;;;5055862;28;20025;-78
2022/03/28 04:08:38;;;;;;;3.17;1.40;;;25.20;99.90;;;;;;5055523;28;20036;-78
2022/03/28 04:11:06;;;;;;;4.50;1.48;;;25.30;99.90;;;;;;5073956;28;20382;-79
2022/03/28 04:13:37;;;;;;;5.88;2.20;;;25.60;99.90;;;;;;5073987;28;20052;-79
2022/03/28 04:16:05;;;;;;;5.82;1.90;;;25.70;99.90;;;;;;5073798;28;20032;-78
2022/03/28 04:18:35;;;;;;;4.93;1.80;;;25.80;99.90;;;;;;5073749;28;20048;-78
2022/03/28 04:21:03;;;;;;;5.50;2.30;;;26.10;99.90;;;;;;5055833;28;20081;-78
2022/03/28 04:23:30;;;;;;;3.80;1.90;;;26.40;99.90;;;;;;5039010;28;20269;-78
2022/03/28 04:25:57;;;;;;;4.18;1.70;;;26.70;99.90;;;;;;5055406;28;20190;-78
2022/03/28 04:28:25;;;;;;;3.72;1.83;;;26.60;99.90;;;;;;5074114;28;20103;-79
2022/03/28 04:30:52;;;;;;;3.97;1.52;;;26.30;99.90;;;;;;5073277;28;20025;-80
2022/03/28 04:33:20;;;;;;;2.78;1.65;;;26.00;99.90;;;;;;5055454;28;20024;-80
2022/03/28 04:35:47;;;;;;;2.83;1.40;;;25.90;99.90;;;;;;5073209;28;20032;-79
2022/03/28 04:38:15;;;;;;;3.13;1.40;;;25.80;99.90;;;;;;5073293;28;20100;-80
2022/03/28 04:40:42;;;;;;;3.08;1.40;;;25.70;99.90;;;;;;5055297;28;20031;-79
2022/03/28 04:43:09;;;;;;;3.50;1.48;;;25.60;99.90;;;;;;5055206;28;20028;-79
2022/03/28 04:45:37;;;;;;;3.28;1.83;;;25.50;99.90;;;;;;5055004;28;20025;-81
2022/03/28 04:48:05;;;;;;;3.55;1.48;;;25.40;99.90;;;;;;5073086;28;20095;-80
2022/03/28 04:50:32;;;;;;;3.85;1.60;;;25.30;99.90;;;;;;5054934;28;20024;-78
2022/03/28 04:53:00;;;;;;;3.50;1.70;;;25.30;99.90;;;;;;5072856;28;20119;-77
2022/03/28 04:55:27;;;;;;;4.22;1.70;;;25.40;99.90;;;;;;5054800;28;20111;-78
2022/03/28 04:57:55;;;;;;;3.03;1.70;;;25.20;99.90;;;;;;5055008;28;20028;-77
2022/03/28 05:00:22;;;;;;;4.05;2.20;;;25.10;99.90;;;;;;5054766;28;20028;-78
2022/03/28 05:02:50;;;;;;;3.88;1.73;;;25.20;99.90;;;;;;5054844;28;20059;-78
2022/03/28 05:05:17;;;;;;;3.35;1.60;;;25.40;99.90;;;;;;5072600;28;20385;-78
2022/03/28 05:07:44;;;;;;;3.05;2.00;;;25.70;99.90;;;;;;5054819;28;20028;-77
2022/03/28 05:10:12;;;;;;;6.05;2.35;;;25.80;99.90;;;;;;5072528;28;20087;-79
2022/03/28 05:12:40;;;;;;;3.15;2.13;;;25.80;99.90;;;;;;5054897;28;20017;-79
2022/03/28 05:15:08;;;;;;;3.55;1.65;;;25.50;99.90;;;;;;5054432;28;20025;-74
2022/03/28 05:17:35;;;;;;;5.03;2.60;;;25.30;99.90;;;;;;5072582;28;20028;-75
2022/03/28 05:20:04;;;;;;;3.67;1.85;;;25.00;99.90;;;;;;5054022;28;20069;-75
2022/03/28 05:22:32;;;;;;;4.28;1.83;;;24.90;99.90;;;;;;5072145;28;20025;-75
2022/03/28 05:24:59;;;;;;;7.18;2.40;;;24.90;99.90;;;;;;5072175;28;20033;-75
2022/03/28 05:27:27;;;;;;;3.72;1.80;;;25.00;99.90;;;;;;5072162;28;20090;-75
2022/03/28 05:29:54;;;;;;;4.50;1.83;;;25.00;99.90;;;;;;5054418;28;20021;-75
2022/03/28 05:32:22;;;;;;;8.13;2.10;;;25.00;99.90;;;;;;5072137;28;20028;-75
2022/03/28 05:34:49;;;;;;;6.28;1.67;;;24.90;99.90;;;;;;5054010;28;20031;-75
2022/03/28 05:37:17;;;;;;;5.15;1.52;;;25.00;99.90;;;;;;5054011;28;20472;-75
2022/03/28 05:39:46;;;;;;;4.47;1.90;;;25.10;99.90;;;;;;5072252;28;20025;-75
2022/03/28 05:42:13;;;;;;;2.83;1.70;;;25.10;99.90;;;;;;5054124;28;20384;-75
2022/03/28 05:44:41;;;;;;;5.35;1.50;;;25.00;99.90;;;;;;5054343;28;20024;-75
2022/03/28 05:47:09;;;;;;;4.45;1.75;;;24.80;99.90;;;;;;5072032;28;20024;-76
2022/03/28 05:49:37;;;;;;;4.75;1.60;;;24.90;99.90;;;;;;5054195;28;20096;-76
2022/03/28 05:52:05;;;;;;;4.03;1.80;;;25.00;99.90;;;;;;5072208;28;20074;-75
2022/03/28 05:54:32;;;;;;;3.40;1.60;;;25.00;99.90;;;;;;5054194;28;20063;-76
2022/03/28 05:57:00;;;;;;;3.45;1.45;;;24.90;99.90;;;;;;5053942;28;20024;-76
2022/03/28 05:59:28;;;;;;;5.68;1.73;;;24.90;99.90;;;;;;5072408;28;20059;-76
2022/03/28 06:01:56;;;;;;;6.43;2.40;;;25.00;99.90;;;;;;5071902;28;20080;-76
2022/03/28 06:04:23;;;;;;;5.35;1.83;;;24.90;99.90;;;;;;5054044;28;20058;-76
2022/03/28 06:06:51;;;;;;;6.10;1.88;;;25.00;99.90;;;;;;5053977;28;20020;-76
2022/03/28 06:09:18;;;;;;;5.45;1.90;;;24.90;99.90;;;;;;5071595;28;20044;-76
2022/03/28 06:11:45;;;;;;;5.93;1.65;;;24.80;99.90;;;;;;5053991;28;20393;-76
2022/03/28 06:14:13;;;;;;;3.83;1.83;;;24.80;99.90;;;;;;5071914;28;20058;-75
2022/03/28 06:16:40;;;;;;;8.00;2.08;;;24.50;99.90;;;;;;5054108;28;20543;-76
2022/03/28 06:19:07;;;;;;;4.03;1.73;;;24.50;99.90;;;;;;5071947;28;20021;-82
2022/03/28 06:21:35;;;;;;;5.38;1.83;;;24.50;99.90;;;;;;5053965;28;20029;-81
2022/03/28 06:24:03;;;;;;;4.63;2.10;;;24.30;99.90;;;;;;5053839;28;20035;-81
2022/03/28 06:26:31;;;;;;;4.93;1.92;;;24.20;99.90;;;;;;5071735;28;20024;-78
2022/03/28 06:28:58;;;;;;;4.68;1.95;;;24.10;99.90;;;;;;5053697;28;20135;-78
2022/03/28 06:31:25;;;;;;;5.70;2.50;;;23.90;99.90;;;;;;5054805;28;20020;-78
2022/03/28 06:34:01;;;;;;;4.28;2.08;;;23.80;99.90;;;;;;5075618;28;20024;-78
2022/03/28 06:36:32;;;;;;;6.30;2.47;;;23.70;99.90;;;;;;5057706;28;20097;-77
2022/03/28 06:39:02;;;;;;;5.43;2.20;;;23.60;99.90;;;;;;5075611;28;20063;-77
2022/03/28 06:41:29;;;;;;;7.72;2.88;;;23.50;99.90;;;;;;5057767;28;20029;-77
2022/03/28 06:43:56;;;;;;;5.55;2.22;;;23.40;99.90;;;;;;5076021;28;20024;-77
2022/03/28 06:46:24;;;;;;;5.05;2.45;;;23.40;99.90;;;;;;5075371;28;20025;-75
2022/03/28 06:48:54;;;;;;;5.43;2.10;;;23.50;99.90;;;;;;5075285;28;20028;-76
2022/03/28 06:51:21;;;;;;;4.05;2.25;;;23.50;99.90;;;;;;5057361;28;20024;-76
2022/03/28 06:53:49;;;;;;;5.40;2.00;;;23.40;99.90;;;;;;5057241;28;20507;-74
2022/03/28 06:56:20;;;;;;;5.68;1.95;;;23.40;99.90;;;;;;5057280;28;20341;-74
2022/03/28 06:58:47;;;;;;;4.85;2.08;;;23.40;99.90;;;;;;5075148;28;20032;-74
2022/03/28 07:01:15;;;;;;;6.88;4.45;;;23.30;99.90;;;;;;5075065;28;20028;-74
2022/03/28 07:03:42;;;;;;;6.65;2.40;;;23.30;99.90;;;;;;5057060;28;20082;-75
2022/03/28 07:06:10;;;;;;;31.77;28.85;;;23.20;99.90;;;;;;5057052;28;20507;-74
2022/03/28 07:08:37;;;;;;;205.77;189.50;;;23.20;99.90;;;;;;5074714;28;20072;-74
2022/03/28 07:11:05;;;;;;;3.78;2.63;;;23.20;99.90;;;;;;5057013;28;20497;-75
2022/03/28 07:13:32;;;;;;;9.63;8.57;;;23.10;99.90;;;;;;5074990;28;20023;-76
2022/03/28 07:16:00;;;;;;;6.30;2.78;;;23.10;99.90;;;;;;5074817;28;20046;-74
2022/03/28 07:18:27;;;;;;;6.43;2.90;;;23.10;99.90;;;;;;5074830;28;20025;-74
2022/03/28 07:20:55;;;;;;;6.93;2.60;;;23.10;99.90;;;;;;5074769;28;20047;-75
2022/03/28 07:23:22;;;;;;;5.35;1.80;;;23.10;99.90;;;;;;5074717;28;20048;-74
2022/03/28 07:25:50;;;;;;;5.70;2.78;;;23.00;99.90;;;;;;5074589;28;20025;-74
2022/03/28 07:28:20;;;;;;;5.45;1.92;;;23.00;99.90;;;;;;5074675;28;20020;-74
2022/03/28 07:30:47;;;;;;;4.68;1.98;;;22.90;99.90;;;;;;5074591;28;20075;-74
2022/03/28 07:33:15;;;;;;;6.45;2.13;;;22.90;99.90;;;;;;5056668;28;20032;-74
2022/03/28 07:35:44;;;;;;;10.10;5.47;;;22.80;99.90;;;;;;5074506;28;20477;-74
2022/03/28 07:38:11;;;;;;;21.77;19.45;;;22.70;99.90;;;;;;5056598;28;20028;-73
2022/03/28 07:40:40;;;;;;;5.22;2.33;;;22.70;99.90;;;;;;5056340;28;20071;-74
2022/03/28 07:43:08;;;;;;;3.80;1.38;;;22.70;99.90;;;;;;5055607;28;20481;-75
2022/03/28 07:45:36;;;;;;;3.10;1.30;;;22.70;99.90;;;;;;5056448;28;20036;-75
2022/03/28 07:48:06;;;;;;;3.78;1.10;;;22.60;99.90;;;;;;5074389;28;20473;-75
2022/03/28 07:50:34;;;;;;;4.70;1.80;;;22.60;99.90;;;;;;5074314;28;20013;-75
2022/03/28 07:53:02;;;;;;;6.57;2.15;;;22.60;99.90;;;;;;5074089;28;20618;-75
2022/03/28 07:55:30;;;;;;;3.35;1.70;;;22.60;99.90;;;;;;5074134;28;20021;-75
2022/03/28 07:57:59;;;;;;;2.72;1.40;;;22.60;99.90;;;;;;5056081;28;20446;-75
2022/03/28 08:00:29;;;;;;;3.05;1.30;;;22.60;99.90;;;;;;5056165;28;20025;-74
2022/03/28 08:02:57;;;;;;;4.83;1.27;;;22.50;99.90;;;;;;5074115;28;20090;-73
2022/03/28 08:05:26;;;;;;;4.38;1.00;;;22.40;99.90;;;;;;5056126;28;20753;-75
2022/03/28 08:07:54;;;;;;;6.07;1.40;;;22.40;99.90;;;;;;5039288;28;20489;-74
2022/03/28 08:10:23;;;;;;;6.00;1.23;;;22.40;99.90;;;;;;5054892;28;20194;-75
2022/03/28 08:12:51;;;;;;;5.05;1.02;;;22.30;99.90;;;;;;5072744;28;20027;-76
2022/03/28 08:15:22;;;;;;;6.47;1.42;;;22.30;99.90;;;;;;5055061;28;20064;-75
2022/03/28 08:17:49;;;;;;;5.35;1.52;;;22.30;99.90;;;;;;5038429;28;20087;-75
2022/03/28 08:20:17;;;;;;;5.47;1.52;;;22.30;99.90;;;;;;5054738;28;20485;-76
2022/03/28 08:22:49;;;;;;;5.20;1.17;;;22.20;99.90;;;;;;5054957;28;20021;-76
2022/03/28 08:25:21;;;;;;;6.05;1.35;;;22.20;99.90;;;;;;5072714;28;20363;-75
2022/03/28 08:27:50;;;;;;;4.40;1.05;;;22.20;99.90;;;;;;5072931;28;20112;-75
2022/03/28 08:30:18;;;;;;;4.82;1.40;;;22.20;99.90;;;;;;5054782;28;20198;-76
2022/03/28 08:32:47;;;;;;;5.47;1.38;;;22.10;99.90;;;;;;5038123;28;20036;-76
2022/03/28 08:35:15;;;;;;;5.53;1.25;;;22.20;99.90;;;;;;5054468;28;20529;-76
2022/03/28 08:37:42;;;;;;;3.60;1.00;;;22.10;99.90;;;;;;5055156;28;20036;-78
2022/03/28 08:40:10;;;;;;;3.97;0.93;;;22.10;99.90;;;;;;5072650;28;20090;-75
2022/03/28 08:42:39;;;;;;;3.83;1.13;;;22.10;99.90;;;;;;5072759;28;20013;-77
2022/03/28 08:45:08;;;;;;;3.55;1.00;;;22.20;99.90;;;;;;5054843;28;20017;-76
2022/03/28 08:47:40;;;;;;;4.13;1.27;;;22.20;99.90;;;;;;5054430;28;20396;-76
2022/03/28 08:50:10;;;;;;;3.92;1.00;;;22.20;99.90;;;;;;5054631;28;20385;-75
2022/03/28 08:52:40;;;;;;;5.53;1.40;;;22.20;99.90;;;;;;5054514;28;20029;-75
2022/03/28 08:55:13;;;;;;;5.47;1.42;;;22.20;99.90;;;;;;5071522;28;20012;-76
2022/03/28 08:57:41;;;;;;;4.95;1.20;;;22.20;99.90;;;;;;5072414;28;20022;-77
2022/03/28 09:00:10;;;;;;;4.07;1.40;;;22.20;99.90;;;;;;5072974;28;20258;-76
2022/03/28 09:02:45;;;;;;;5.05;1.20;;;22.20;99.90;;;;;;5054932;28;20117;-77
2022/03/28 09:05:14;;;;;;;5.82;1.27;;;22.30;99.90;;;;;;5072857;28;20024;-75
2022/03/28 09:07:42;;;;;;;7.07;1.45;;;22.20;99.90;;;;;;5072796;28;20385;-76
2022/03/28 09:10:15;;;;;;;5.88;1.38;;;22.20;99.90;;;;;;5054561;28;20044;-76
2022/03/28 09:13:05;;;;;;;4.43;1.63;;;22.20;99.90;;;;;;5072785;28;20020;-75
2022/03/28 09:15:52;;;;;;;7.83;1.67;;;22.20;99.90;;;;;;5072705;28;20039;-75
2022/03/28 09:18:23;;;;;;;6.88;1.95;;;22.20;99.90;;;;;;5054658;28;20324;-76
2022/03/28 09:20:53;;;;;;;4.15;1.33;;;22.30;99.90;;;;;;5072640;28;20473;-76
2022/03/28 09:23:49;;;;;;;4.88;1.15;;;22.30;99.90;;;;;;5054631;28;20021;-76
2022/03/28 09:26:26;;;;;;;4.18;1.30;;;22.20;99.90;;;;;;5054477;28;20036;-77
2022/03/28 09:29:02;;;;;;;4.53;1.27;;;22.30;99.90;;;;;;5072547;28;20021;-77
2022/03/28 09:31:38;;;;;;;4.18;1.23;;;22.20;99.90;;;;;;5072493;28;20034;-78
2022/03/28 09:34:11;;;;;;;5.38;1.58;;;22.20;99.90;;;;;;5054536;28;20115;-77
2022/03/28 09:36:43;;;;;;;4.13;1.20;;;22.20;99.90;;;;;;5054350;28;20431;-77
2022/03/28 09:39:19;;;;;;;3.90;1.23;;;22.20;99.90;;;;;;5054295;28;20043;-77
2022/03/28 09:42:03;;;;;;;2.95;1.30;;;22.20;99.90;;;;;;5072449;28;20035;-77
2022/03/28 09:44:38;;;;;;;2.38;0.85;;;22.20;99.90;;;;;;5054174;28;20481;-76
2022/03/28 09:47:11;;;;;;;3.83;0.90;;;22.20;99.90;;;;;;5054271;28;20028;-76
2022/03/28 09:49:43;;;;;;;3.90;1.00;;;22.20;99.90;;;;;;5054195;28;20496;-76
2022/03/28 09:52:25;;;;;;;3.90;0.70;;;22.20;99.90;;;;;;5072164;28;20427;-75
2022/03/28 09:54:55;;;;;;;3.30;0.93;;;22.20;99.90;;;;;;5054132;28;20074;-75
2022/03/28 09:57:33;;;;;;;4.28;0.90;;;22.20;99.90;;;;;;5072130;28;20362;-75
2022/03/28 10:00:18;;;;;;;5.70;0.80;;;22.20;99.90;;;;;;5072175;28;20056;-75
2022/03/28 10:02:47;;;;;;;4.25;1.13;;;22.20;99.90;;;;;;5053893;28;20468;-75
2022/03/28 10:05:14;;;;;;;4.75;1.10;;;22.20;99.90;;;;;;5053860;28;20039;-75
2022/03/28 10:07:42;;;;;;;5.13;1.05;;;22.10;99.90;;;;;;5057173;28;20021;-75
2022/03/28 10:10:10;;;;;;;2.65;0.85;;;22.10;99.90;;;;;;5057925;28;20051;-75
2022/03/28 10:12:38;;;;;;;5.15;1.13;;;22.10;99.90;;;;;;5058134;28;20075;-76
2022/03/28 10:15:06;;;;;;;5.60;1.50;;;22.00;99.90;;;;;;5075946;28;20067;-76
2022/03/28 10:17:33;;;;;;;5.00;1.33;;;22.00;99.90;;;;;;5058161;28;20040;-76
2022/03/28 10:20:02;;;;;;;6.97;1.55;;;22.00;99.90;;;;;;5058067;28;20052;-75
2022/03/28 10:22:40;;;;;;;6.15;1.08;;;22.00;99.90;;;;;;5076129;28;20021;-73
2022/03/28 10:25:16;;;;;;;7.28;1.65;;;21.90;99.90;;;;;;5057999;28;20052;-74
2022/03/28 10:27:43;;;;;;;4.10;1.20;;;21.90;99.90;;;;;;5075864;28;20024;-76
2022/03/28 10:30:30;;;;;;;6.45;1.77;;;21.80;99.90;;;;;;5057798;28;20048;-75
2022/03/28 10:33:22;;;;;;;4.90;1.10;;;21.80;99.90;;;;;;5075831;28;20016;-75
2022/03/28 10:35:58;;;;;;;8.45;2.30;;;21.70;99.90;;;;;;5057736;28;20032;-76
2022/03/28 10:38:26;;;;;;;5.82;1.33;;;21.70;99.90;;;;;;5057565;28;20112;-76
2022/03/28 10:41:16;;;;;;;8.00;1.60;;;21.70;99.90;;;;;;5057625;28;20272;-75
2022/03/28 10:43:44;;;;;;;5.63;1.63;;;21.70;99.90;;;;;;5075695;28;20032;-79
2022/03/28 10:46:13;;;;;;;5.53;1.67;;;21.60;99.90;;;;;;5057433;28;20037;-76
2022/03/28 10:49:00;;;;;;;6.20;1.45;;;21.60;99.90;;;;;;5076119;28;20023;-76
2022/03/28 10:51:30;;;;;;;6.03;1.52;;;21.50;99.90;;;;;;5057467;28;20021;-76
2022/03/28 10:53:59;;;;;;;10.03;2.23;;;21.50;99.90;;;;;;5057583;28;20028;-77
2022/03/28 10:56:40;;;;;;;8.57;1.50;;;21.40;99.90;;;;;;5075364;28;20265;-77
2022/03/28 10:59:13;;;;;;;9.10;1.85;;;21.30;99.90;;;;;;5057576;28;20032;-76
2022/03/28 11:01:57;;;;;;;6.28;1.75;;;21.30;99.90;;;;;;5075753;28;20111;-79
2022/03/28 11:04:25;;;;;;;6.18;2.08;;;21.30;99.90;;;;;;5075097;28;20070;-79
2022/03/28 11:07:13;;;;;;;7.97;2.00;;;21.30;99.90;;;;;;5075085;28;20017;-79
2022/03/28 11:09:47;;;;;;;7.43;2.03;;;21.40;99.90;;;;;;5056955;28;20040;-79
2022/03/28 11:12:19;;;;;;;14.23;2.88;;;21.30;99.90;;;;;;5075146;28;20097;-80
2022/03/28 11:14:57;;;;;;;9.98;2.63;;;21.30;99.90;;;;;;5075172;28;20454;-80
2022/03/28 11:17:28;;;;;;;8.95;2.53;;;21.20;99.90;;;;;;5074657;28;20024;-81
2022/03/28 11:20:14;;;;;;;6.53;1.85;;;21.20;99.90;;;;;;5056469;28;20025;-80
2022/03/28 11:22:56;;;;;;;6.85;1.55;;;21.20;99.90;;;;;;5074966;28;20146;-80
2022/03/28 11:25:44;;;;;;;4.57;1.33;;;21.10;99.90;;;;;;5056853;28;20039;-82
2022/03/28 11:28:26;;;;;;;4.82;0.77;;;21.00;99.90;;;;;;5075015;28;20025;-83
2022/03/28 11:31:12;;;;;;;3.22;1.02;;;20.70;99.90;;;;;;5074827;28;20477;-83
2022/03/28 11:33:46;;;;;;;3.55;1.35;;;20.60;99.90;;;;;;5040772;28;20032;-82
2022/03/28 11:36:18;;;;;;;2.65;0.60;;;20.60;99.90;;;;;;5056763;28;20032;-80
2022/03/28 11:38:52;;;;;;;2.22;0.95;;;20.60;99.90;;;;;;5074750;28;20086;-79
2022/03/28 11:41:21;;;;;;;3.80;0.80;;;20.60;99.90;;;;;;5056620;28;20028;-80
2022/03/28 11:43:50;;;;;;;4.32;0.90;;;20.60;99.90;;;;;;5056452;28;20032;-80
2022/03/28 11:46:24;;;;;;;7.18;1.25;;;20.50;99.90;;;;;;5074305;28;20031;-81
2022/03/28 11:48:56;;;;;;;6.97;2.17;;;20.60;99.90;;;;;;5058022;28;20064;-83
2022/03/28 11:51:25;;;;;;;6.55;1.48;;;20.60;99.90;;;;;;5075015;28;20036;-83
2022/03/28 11:53:53;;;;;;;4.82;1.17;;;20.70;99.90;;;;;;5056664;28;20021;-81
2022/03/28 11:59:27;;;;;;;6.93;1.65;;;20.70;99.90;;;;;;5075577;28;20032;-86
2022/03/28 12:02:03;;;;;;;6.30;1.60;;;20.70;99.90;;;;;;5057588;28;20123;-85
2022/03/28 12:04:30;;;;;;;5.68;1.25;;;20.70;99.90;;;;;;5058466;28;20092;-85
2022/03/28 12:06:58;;;;;;;4.53;1.50;;;20.70;99.90;;;;;;5058937;28;20028;-84
2022/03/28 12:09:26;;;;;;;5.43;1.50;;;20.80;99.90;;;;;;5076237;28;20073;-85
2022/03/28 12:12:00;;;;;;;5.60;1.55;;;20.80;99.90;;;;;;5075984;28;20016;-85
2022/03/28 12:14:32;;;;;;;7.57;2.08;;;20.70;99.90;;;;;;5058495;28;20017;-85
2022/03/28 12:16:59;;;;;;;5.07;1.45;;;20.70;99.90;;;;;;5059336;28;20036;-85
2022/03/28 12:19:29;;;;;;;5.63;1.40;;;20.70;99.90;;;;;;5078814;28;20393;-83
2022/03/28 12:21:59;;;;;;;6.77;1.30;;;20.80;99.90;;;;;;5063844;28;20389;-84
2022/03/28 12:24:28;;;;;;;5.65;1.85;;;20.70;99.90;;;;;;5058734;28;20132;-83
2022/03/28 12:26:59;;;;;;;4.13;1.00;;;20.80;99.90;;;;;;5063113;28;20091;-83
2022/03/28 12:29:32;;;;;;;5.38;1.33;;;20.80;99.90;;;;;;5057696;28;20082;-83
2022/03/28 12:32:04;;;;;;;6.32;1.20;;;20.80;99.90;;;;;;5062561;28;20024;-84
2022/03/28 12:34:33;;;;;;;4.95;1.13;;;20.80;99.90;;;;;;5065172;28;20021;-83
2022/03/28 12:37:00;;;;;;;3.33;0.85;;;20.80;99.90;;;;;;5061899;28;20032;-83
2022/03/28 12:39:29;;;;;;;2.95;0.98;;;20.80;99.90;;;;;;5057862;28;20388;-82
2022/03/28 12:41:57;;;;;;;2.83;0.73;;;20.80;99.90;;;;;;5055592;28;20085;-81
2022/03/28 12:44:28;;;;;;;4.18;1.15;;;20.70;99.90;;;;;;5056315;28;20028;-84
2022/03/28 12:47:06;;;;;;;4.78;1.10;;;20.80;99.90;;;;;;5059622;28;20020;-83
2022/03/28 12:49:45;;;;;;;6.95;1.35;;;20.70;99.90;;;;;;5055267;28;20024;-82
2022/03/28 12:52:22;;;;;;;4.53;1.20;;;20.70;99.90;;;;;;5073200;28;20019;-82
2022/03/28 12:54:55;;;;;;;7.43;1.55;;;20.70;99.90;;;;;;5055157;28;20476;-82
2022/03/28 12:57:28;;;;;;;3.92;1.10;;;20.60;99.90;;;;;;5055224;28;20473;-82
2022/03/28 12:59:56;;;;;;;4.68;1.00;;;20.70;99.90;;;;;;5055036;28;20024;-83
2022/03/28 13:02:24;;;;;;;4.28;1.30;;;20.70;99.90;;;;;;5056014;28;20189;-84